createdAt,value
2019-02-06T00:00:26.084Z,1022.89
2019-02-06T00:00:55.817Z,1022.95
2019-02-06T00:01:36.432Z,1022.89
2019-02-06T00:02:17.088Z,1022.92
2019-02-06T00:02:57.707Z,1022.91
2019-02-06T00:03:38.385Z,1022.89
2019-02-06T00:04:19.031Z,1022.92
2019-02-06T00:04:59.674Z,1022.89
2019-02-06T00:05:40.311Z,1022.87
2019-02-06T00:06:20.923Z,1022.85
2019-02-06T00:07:01.541Z,1022.84
2019-02-06T00:07:42.196Z,1022.86
2019-02-06T00:08:22.848Z,1022.84
2019-02-06T00:09:03.485Z,1022.85
2019-02-06T00:09:44.104Z,1022.84
2019-02-06T00:10:24.703Z,1022.85
2019-02-06T00:11:05.398Z,1022.84
2019-02-06T00:11:46.008Z,1022.88
2019-02-06T00:12:26.695Z,1022.86
2019-02-06T00:13:07.313Z,1022.91
2019-02-06T00:13:47.911Z,1022.91
2019-02-06T00:14:28.554Z,1022.9
2019-02-06T00:15:09.186Z,1022.9
2019-02-06T00:15:49.780Z,1022.87
2019-02-06T00:16:30.391Z,1022.89
2019-02-06T00:17:11.001Z,1022.93
2019-02-06T00:17:51.611Z,1022.89
2019-02-06T00:18:32.273Z,1022.91
2019-02-06T00:19:12.884Z,1022.86
2019-02-06T00:19:53.495Z,1022.91
2019-02-06T00:20:34.089Z,1022.89
2019-02-06T00:21:14.697Z,1022.85
2019-02-06T00:21:55.323Z,1022.9
2019-02-06T00:22:35.921Z,1022.87
2019-02-06T00:23:16.537Z,1022.85
2019-02-06T00:23:57.184Z,1022.85
2019-02-06T00:24:37.827Z,1022.86
2019-02-06T00:25:18.429Z,1022.83
2019-02-06T00:25:59.044Z,1022.82
2019-02-06T00:26:39.648Z,1022.83
2019-02-06T00:27:20.251Z,1022.84
2019-02-06T00:28:00.868Z,1022.84
2019-02-06T00:28:41.495Z,1022.82
2019-02-06T00:29:22.104Z,1022.85
2019-02-06T00:30:02.699Z,1022.85
2019-02-06T00:30:43.321Z,1022.87
2019-02-06T00:31:23.970Z,1022.83
2019-02-06T00:32:04.792Z,1022.84
2019-02-06T00:32:45.380Z,1022.86
2019-02-06T00:33:25.974Z,1022.84
2019-02-06T00:34:06.609Z,1022.85
2019-02-06T00:34:47.224Z,1022.83
2019-02-06T00:35:27.815Z,1022.83
2019-02-06T00:36:08.442Z,1022.81
2019-02-06T00:36:49.042Z,1022.81
2019-02-06T00:37:29.661Z,1022.76
2019-02-06T00:38:10.260Z,1022.82
2019-02-06T00:38:50.889Z,1022.82
2019-02-06T00:39:31.527Z,1022.78
2019-02-06T00:40:12.184Z,1022.8
2019-02-06T00:40:52.815Z,1022.79
2019-02-06T00:41:33.495Z,1022.81
2019-02-06T00:42:14.203Z,1022.81
2019-02-06T00:42:54.809Z,1022.84
2019-02-06T00:43:35.455Z,1022.85
2019-02-06T00:44:16.306Z,1022.86
2019-02-06T00:44:57.137Z,1022.81
2019-02-06T00:45:37.837Z,1022.82
2019-02-06T00:46:18.450Z,1022.82
2019-02-06T00:46:59.046Z,1022.8
2019-02-06T00:47:39.693Z,1022.82
2019-02-06T00:48:20.333Z,1022.85
2019-02-06T00:49:00.983Z,1022.83
2019-02-06T00:49:41.577Z,1022.84
2019-02-06T00:50:22.165Z,1022.81
2019-02-06T00:51:02.763Z,1022.8
2019-02-06T00:51:43.369Z,1022.81
2019-02-06T00:52:23.968Z,1022.82
2019-02-06T00:53:04.567Z,1022.81
2019-02-06T00:53:45.167Z,1022.78
2019-02-06T00:54:25.771Z,1022.81
2019-02-06T00:55:06.357Z,1022.78
2019-02-06T00:55:46.997Z,1022.81
2019-02-06T00:56:27.635Z,1022.8
2019-02-06T00:57:08.239Z,1022.8
2019-02-06T00:57:48.911Z,1022.79
2019-02-06T00:58:29.533Z,1022.8
2019-02-06T00:59:10.127Z,1022.79
2019-02-06T00:59:50.741Z,1022.77
2019-02-06T01:00:31.323Z,1022.8
2019-02-06T01:01:11.932Z,1022.79
2019-02-06T01:01:52.529Z,1022.8
2019-02-06T01:02:33.405Z,1022.78
2019-02-06T01:03:14.721Z,1022.78
2019-02-06T01:03:55.481Z,1022.79
2019-02-06T01:04:36.093Z,1022.79
2019-02-06T01:05:16.675Z,1022.79
2019-02-06T01:05:57.285Z,1022.78
2019-02-06T01:06:37.871Z,1022.81
2019-02-06T01:07:18.456Z,1022.77
2019-02-06T01:07:59.065Z,1022.76
2019-02-06T01:08:39.691Z,1022.77
2019-02-06T01:09:20.271Z,1022.8
2019-02-06T01:10:00.973Z,1022.77
2019-02-06T01:10:41.588Z,1022.81
2019-02-06T01:11:22.219Z,1022.78
2019-02-06T01:12:02.942Z,1022.78
2019-02-06T01:12:43.589Z,1022.76
2019-02-06T01:13:24.352Z,1022.78
2019-02-06T01:14:05.151Z,1022.78
2019-02-06T01:14:45.691Z,1022.76
2019-02-06T01:15:26.521Z,1022.75
2019-02-06T01:16:07.116Z,1022.78
2019-02-06T01:16:47.732Z,1022.75
2019-02-06T01:17:28.317Z,1022.76
2019-02-06T01:18:08.915Z,1022.76
2019-02-06T01:18:49.509Z,1022.78
2019-02-06T01:19:30.111Z,1022.77
2019-02-06T01:20:10.732Z,1022.79
2019-02-06T01:20:51.345Z,1022.77
2019-02-06T01:21:31.953Z,1022.75
2019-02-06T01:22:12.591Z,1022.75
2019-02-06T01:22:53.195Z,1022.77
2019-02-06T01:23:33.799Z,1022.74
2019-02-06T01:24:14.389Z,1022.71
2019-02-06T01:24:54.997Z,1022.71
2019-02-06T01:25:35.611Z,1022.72
2019-02-06T01:26:16.329Z,1022.76
2019-02-06T01:26:56.949Z,1022.71
2019-02-06T01:27:37.553Z,1022.71
2019-02-06T01:28:18.175Z,1022.74
2019-02-06T01:28:58.761Z,1022.72
2019-02-06T01:29:39.374Z,1022.71
2019-02-06T01:30:20.068Z,1022.72
2019-02-06T01:31:00.631Z,1022.74
2019-02-06T01:31:41.228Z,1022.72
2019-02-06T01:32:21.837Z,1022.72
2019-02-06T01:33:02.423Z,1022.72
2019-02-06T01:33:43.033Z,1022.69
2019-02-06T01:34:23.668Z,1022.69
2019-02-06T01:35:04.259Z,1022.7
2019-02-06T01:35:49.754Z,1022.68
2019-02-06T01:36:25.464Z,1022.7
2019-02-06T01:37:06.075Z,1022.7
2019-02-06T01:37:46.688Z,1022.71
2019-02-06T01:38:27.317Z,1022.69
2019-02-06T01:39:07.951Z,1022.67
2019-02-06T01:39:48.543Z,1022.68
2019-02-06T01:40:29.144Z,1022.66
2019-02-06T01:41:09.733Z,1022.67
2019-02-06T01:41:50.315Z,1022.73
2019-02-06T01:42:30.911Z,1022.66
2019-02-06T01:43:11.545Z,1022.69
2019-02-06T01:43:52.185Z,1022.68
2019-02-06T01:44:32.765Z,1022.69
2019-02-06T01:45:13.379Z,1022.71
2019-02-06T01:45:53.964Z,1022.72
2019-02-06T01:46:34.595Z,1022.7
2019-02-06T01:47:15.211Z,1022.7
2019-02-06T01:47:55.800Z,1022.67
2019-02-06T01:48:36.397Z,1022.67
2019-02-06T01:49:16.985Z,1022.71
2019-02-06T01:49:57.585Z,1022.66
2019-02-06T01:50:38.180Z,1022.67
2019-02-06T01:51:18.771Z,1022.65
2019-02-06T01:51:59.382Z,1022.67
2019-02-06T01:52:39.974Z,1022.64
2019-02-06T01:53:20.555Z,1022.65
2019-02-06T01:54:01.145Z,1022.64
2019-02-06T01:54:41.743Z,1022.65
2019-02-06T01:55:22.349Z,1022.62
2019-02-06T01:56:02.947Z,1022.63
2019-02-06T01:56:43.553Z,1022.63
2019-02-06T01:57:24.149Z,1022.61
2019-02-06T01:58:04.748Z,1022.62
2019-02-06T01:58:45.354Z,1022.6
2019-02-06T01:59:25.965Z,1022.6
2019-02-06T02:00:06.551Z,1022.6
2019-02-06T02:00:47.185Z,1022.6
2019-02-06T02:01:27.795Z,1022.59
2019-02-06T02:02:08.413Z,1022.56
2019-02-06T02:02:49.011Z,1022.55
2019-02-06T02:03:29.607Z,1022.59
2019-02-06T02:04:10.199Z,1022.58
2019-02-06T02:04:50.805Z,1022.58
2019-02-06T02:05:31.405Z,1022.58
2019-02-06T02:06:12.009Z,1022.58
2019-02-06T02:06:52.597Z,1022.57
2019-02-06T02:07:33.189Z,1022.51
2019-02-06T02:08:13.802Z,1022.59
2019-02-06T02:08:54.395Z,1022.57
2019-02-06T02:09:34.996Z,1022.58
2019-02-06T02:10:15.603Z,1022.59
2019-02-06T02:10:56.192Z,1022.6
2019-02-06T02:11:36.771Z,1022.59
2019-02-06T02:12:17.387Z,1022.62
2019-02-06T02:12:58.007Z,1022.59
2019-02-06T02:13:38.609Z,1022.61
2019-02-06T02:14:19.213Z,1022.61
2019-02-06T02:14:59.803Z,1022.58
2019-02-06T02:15:40.405Z,1022.58
2019-02-06T02:16:21.005Z,1022.58
2019-02-06T02:17:01.693Z,1022.6
2019-02-06T02:17:42.290Z,1022.6
2019-02-06T02:18:22.879Z,1022.58
2019-02-06T02:19:03.492Z,1022.6
2019-02-06T02:19:44.081Z,1022.56
2019-02-06T02:20:24.679Z,1022.59
2019-02-06T02:21:05.282Z,1022.57
2019-02-06T02:21:45.883Z,1022.56
2019-02-06T02:22:26.501Z,1022.57
2019-02-06T02:23:07.101Z,1022.55
2019-02-06T02:23:47.709Z,1022.59
2019-02-06T02:24:28.302Z,1022.53
2019-02-06T02:25:08.894Z,1022.51
2019-02-06T02:25:49.480Z,1022.51
2019-02-06T02:26:30.081Z,1022.52
2019-02-06T02:27:10.709Z,1022.5
2019-02-06T02:27:51.314Z,1022.47
2019-02-06T02:28:31.912Z,1022.5
2019-02-06T02:29:12.512Z,1022.48
2019-02-06T02:29:53.109Z,1022.5
2019-02-06T02:30:33.708Z,1022.47
2019-02-06T02:31:14.311Z,1022.48
2019-02-06T02:31:54.903Z,1022.45
2019-02-06T02:32:35.491Z,1022.46
2019-02-06T02:33:16.103Z,1022.45
2019-02-06T02:33:56.702Z,1022.45
2019-02-06T02:34:37.322Z,1022.4
2019-02-06T02:35:17.916Z,1022.4
2019-02-06T02:35:58.512Z,1022.42
2019-02-06T02:36:39.117Z,1022.41
2019-02-06T02:37:19.715Z,1022.4
2019-02-06T02:38:00.332Z,1022.39
2019-02-06T02:38:40.944Z,1022.38
2019-02-06T02:39:21.564Z,1022.36
2019-02-06T02:40:02.172Z,1022.37
2019-02-06T02:40:42.767Z,1022.4
2019-02-06T02:41:23.387Z,1022.4
2019-02-06T02:42:04.009Z,1022.38
2019-02-06T02:42:44.585Z,1022.4
2019-02-06T02:43:25.260Z,1022.38
2019-02-06T02:44:05.799Z,1022.4
2019-02-06T02:44:46.429Z,1022.39
2019-02-06T02:45:27.058Z,1022.42
2019-02-06T02:46:07.711Z,1022.38
2019-02-06T02:46:48.326Z,1022.39
2019-02-06T02:47:28.918Z,1022.42
2019-02-06T02:48:09.503Z,1022.39
2019-02-06T02:48:50.097Z,1022.41
2019-02-06T02:49:30.677Z,1022.33
2019-02-06T02:50:11.269Z,1022.35
2019-02-06T02:50:51.883Z,1022.34
2019-02-06T02:51:32.509Z,1022.36
2019-02-06T02:52:13.148Z,1022.29
2019-02-06T02:52:53.737Z,1022.31
2019-02-06T02:53:34.325Z,1022.3
2019-02-06T02:54:14.936Z,1022.3
2019-02-06T02:54:55.533Z,1022.3
2019-02-06T02:55:36.135Z,1022.33
2019-02-06T02:56:16.860Z,1022.32
2019-02-06T02:56:57.375Z,1022.33
2019-02-06T02:57:37.983Z,1022.32
2019-02-06T02:58:18.565Z,1022.34
2019-02-06T02:58:59.188Z,1022.33
2019-02-06T02:59:39.811Z,1022.35
2019-02-06T03:00:20.437Z,1022.33
2019-02-06T03:01:01.063Z,1022.31
2019-02-06T03:01:41.669Z,1022.31
2019-02-06T03:02:22.281Z,1022.29
2019-02-06T03:03:02.891Z,1022.31
2019-02-06T03:03:43.525Z,1022.3
2019-02-06T03:04:24.146Z,1022.32
2019-02-06T03:05:04.739Z,1022.32
2019-02-06T03:05:45.345Z,1022.3
2019-02-06T03:06:28.463Z,1022.3
2019-02-06T03:07:06.559Z,1022.29
2019-02-06T03:07:47.197Z,1022.27
2019-02-06T03:08:27.790Z,1022.26
2019-02-06T03:09:08.375Z,1022.27
2019-02-06T03:09:48.969Z,1022.28
2019-02-06T03:10:29.587Z,1022.28
2019-02-06T03:11:10.179Z,1022.29
2019-02-06T03:11:50.778Z,1022.27
2019-02-06T03:12:31.384Z,1022.26
2019-02-06T03:13:12.013Z,1022.26
2019-02-06T03:13:52.613Z,1022.25
2019-02-06T03:14:33.211Z,1022.21
2019-02-06T03:15:13.814Z,1022.23
2019-02-06T03:15:54.433Z,1022.19
2019-02-06T03:16:35.003Z,1022.17
2019-02-06T03:17:15.593Z,1022.15
2019-02-06T03:17:56.219Z,1022.15
2019-02-06T03:18:36.801Z,1022.11
2019-02-06T03:19:17.407Z,1022.11
2019-02-06T03:19:58.016Z,1022.06
2019-02-06T03:20:38.612Z,1022.08
2019-02-06T03:21:19.225Z,1022.07
2019-02-06T03:21:59.844Z,1022.07
2019-02-06T03:22:40.466Z,1022.06
2019-02-06T03:23:21.053Z,1022.03
2019-02-06T03:24:01.676Z,1022.09
2019-02-06T03:24:42.299Z,1022.06
2019-02-06T03:25:23.052Z,1022.06
2019-02-06T03:26:03.564Z,1022.09
2019-02-06T03:26:44.154Z,1022.05
2019-02-06T03:27:24.767Z,1022.04
2019-02-06T03:28:05.378Z,1022.03
2019-02-06T03:28:46.013Z,1022.02
2019-02-06T03:29:26.610Z,1022.06
2019-02-06T03:30:07.210Z,1022.02
2019-02-06T03:30:47.820Z,1022.06
2019-02-06T03:31:28.418Z,1022.02
2019-02-06T03:32:09.034Z,1022.01
2019-02-06T03:32:49.645Z,1021.99
2019-02-06T03:33:30.409Z,1021.99
2019-02-06T03:34:10.847Z,1021.98
2019-02-06T03:34:51.453Z,1021.98
2019-02-06T03:35:32.070Z,1021.97
2019-02-06T03:36:12.701Z,1021.97
2019-02-06T03:36:53.315Z,1021.97
2019-02-06T03:37:33.926Z,1021.97
2019-02-06T03:38:15.437Z,1021.98
2019-02-06T03:38:56.053Z,1021.99
2019-02-06T03:39:36.649Z,1021.97
2019-02-06T03:40:17.221Z,1021.96
2019-02-06T03:40:57.833Z,1022
2019-02-06T03:41:38.427Z,1021.99
2019-02-06T03:42:19.033Z,1021.96
2019-02-06T03:42:59.633Z,1021.97
2019-02-06T03:43:40.234Z,1021.94
2019-02-06T03:44:20.847Z,1021.95
2019-02-06T03:45:01.445Z,1021.94
2019-02-06T03:45:42.036Z,1021.93
2019-02-06T03:46:22.639Z,1021.95
2019-02-06T03:47:03.251Z,1021.95
2019-02-06T03:47:43.850Z,1021.9
2019-02-06T03:48:24.462Z,1021.92
2019-02-06T03:49:05.082Z,1021.9
2019-02-06T03:49:45.647Z,1021.9
2019-02-06T03:50:26.315Z,1021.88
2019-02-06T03:51:06.934Z,1021.9
2019-02-06T03:51:47.547Z,1021.87
2019-02-06T03:52:28.167Z,1021.85
2019-02-06T03:53:08.769Z,1021.85
2019-02-06T03:53:49.369Z,1021.86
2019-02-06T03:54:29.975Z,1021.86
2019-02-06T03:55:10.570Z,1021.86
2019-02-06T03:55:51.182Z,1021.86
2019-02-06T03:56:31.779Z,1021.84
2019-02-06T03:57:12.369Z,1021.83
2019-02-06T03:57:52.983Z,1021.84
2019-02-06T03:58:33.581Z,1021.84
2019-02-06T03:59:14.177Z,1021.85
2019-02-06T03:59:54.782Z,1021.85
2019-02-06T04:00:35.401Z,1021.82
2019-02-06T04:01:16.040Z,1021.82
2019-02-06T04:01:56.625Z,1021.81
2019-02-06T04:02:37.234Z,1021.84
2019-02-06T04:03:17.839Z,1021.84
2019-02-06T04:03:58.446Z,1021.82
2019-02-06T04:04:39.042Z,1021.84
2019-02-06T04:05:19.663Z,1021.82
2019-02-06T04:06:00.254Z,1021.84
2019-02-06T04:06:52.557Z,1021.85
2019-02-06T04:07:21.450Z,1021.83
2019-02-06T04:08:02.053Z,1021.86
2019-02-06T04:08:42.652Z,1021.85
2019-02-06T04:09:23.261Z,1021.84
2019-02-06T04:10:03.868Z,1021.81
2019-02-06T04:10:44.477Z,1021.85
2019-02-06T04:11:25.085Z,1021.81
2019-02-06T04:12:05.686Z,1021.82
2019-02-06T04:12:46.303Z,1021.82
2019-02-06T04:13:26.921Z,1021.79
2019-02-06T04:14:07.537Z,1021.84
2019-02-06T04:14:48.115Z,1021.81
2019-02-06T04:15:28.727Z,1021.82
2019-02-06T04:16:09.328Z,1021.79
2019-02-06T04:16:49.929Z,1021.8
2019-02-06T04:17:30.540Z,1021.8
2019-02-06T04:18:11.167Z,1021.79
2019-02-06T04:18:51.775Z,1021.87
2019-02-06T04:19:32.401Z,1021.81
2019-02-06T04:20:13.020Z,1021.81
2019-02-06T04:20:53.644Z,1021.85
2019-02-06T04:21:34.243Z,1021.85
2019-02-06T04:22:14.857Z,1021.8
2019-02-06T04:22:55.471Z,1021.85
2019-02-06T04:23:36.086Z,1021.86
2019-02-06T04:24:16.689Z,1021.84
2019-02-06T04:24:57.301Z,1021.86
2019-02-06T04:25:37.906Z,1021.86
2019-02-06T04:26:18.501Z,1021.83
2019-02-06T04:26:59.090Z,1021.85
2019-02-06T04:27:39.673Z,1021.86
2019-02-06T04:28:20.258Z,1021.87
2019-02-06T04:29:00.888Z,1021.91
2019-02-06T04:29:41.479Z,1021.86
2019-02-06T04:30:22.079Z,1021.89
2019-02-06T04:31:02.694Z,1021.88
2019-02-06T04:31:43.307Z,1021.87
2019-02-06T04:32:23.906Z,1021.89
2019-02-06T04:33:04.508Z,1021.89
2019-02-06T04:33:45.091Z,1021.89
2019-02-06T04:34:25.722Z,1021.89
2019-02-06T04:35:06.290Z,1021.87
2019-02-06T04:35:46.903Z,1021.87
2019-02-06T04:36:27.545Z,1021.84
2019-02-06T04:37:08.149Z,1021.87
2019-02-06T04:37:48.745Z,1021.9
2019-02-06T04:38:29.337Z,1021.91
2019-02-06T04:39:09.939Z,1021.9
2019-02-06T04:39:50.558Z,1021.93
2019-02-06T04:40:31.133Z,1021.87
2019-02-06T04:41:11.734Z,1021.89
2019-02-06T04:41:52.337Z,1021.85
2019-02-06T04:42:32.927Z,1021.85
2019-02-06T04:43:13.524Z,1021.89
2019-02-06T04:43:54.130Z,1021.89
2019-02-06T04:44:34.732Z,1021.92
2019-02-06T04:45:15.358Z,1021.94
2019-02-06T04:45:55.964Z,1021.94
2019-02-06T04:46:36.613Z,1021.93
2019-02-06T04:47:17.214Z,1021.91
2019-02-06T04:47:57.827Z,1021.93
2019-02-06T04:48:38.438Z,1021.93
2019-02-06T04:49:19.161Z,1021.9
2019-02-06T04:49:59.672Z,1021.91
2019-02-06T04:50:40.274Z,1021.93
2019-02-06T04:51:20.870Z,1021.94
2019-02-06T04:52:01.476Z,1021.95
2019-02-06T04:52:42.084Z,1021.95
2019-02-06T04:53:22.727Z,1021.92
2019-02-06T04:54:03.368Z,1021.93
2019-02-06T04:54:43.992Z,1021.92
2019-02-06T04:55:24.603Z,1021.92
2019-02-06T04:56:05.193Z,1021.95
2019-02-06T04:56:45.806Z,1021.92
2019-02-06T04:57:26.413Z,1021.91
2019-02-06T04:58:07.010Z,1021.91
2019-02-06T04:58:47.602Z,1021.88
2019-02-06T04:59:28.230Z,1021.87
2019-02-06T05:00:08.835Z,1021.87
2019-02-06T05:00:49.455Z,1021.9
2019-02-06T05:01:30.065Z,1021.9
2019-02-06T05:02:10.664Z,1021.91
2019-02-06T05:02:51.267Z,1021.9
2019-02-06T05:03:31.864Z,1021.9
2019-02-06T05:04:12.480Z,1021.88
2019-02-06T05:04:53.069Z,1021.92
2019-02-06T05:05:33.665Z,1021.91
2019-02-06T05:06:14.271Z,1021.91
2019-02-06T05:06:54.879Z,1021.91
2019-02-06T05:07:35.460Z,1021.9
2019-02-06T05:08:16.094Z,1021.88
2019-02-06T05:08:56.712Z,1021.92
2019-02-06T05:09:37.337Z,1021.93
2019-02-06T05:10:17.938Z,1021.89
2019-02-06T05:10:58.541Z,1021.96
2019-02-06T05:11:39.145Z,1021.95
2019-02-06T05:12:19.741Z,1021.93
2019-02-06T05:13:00.395Z,1021.95
2019-02-06T05:13:41.008Z,1021.96
2019-02-06T05:14:21.628Z,1021.94
2019-02-06T05:15:02.236Z,1021.95
2019-02-06T05:15:42.845Z,1021.96
2019-02-06T05:16:23.468Z,1021.92
2019-02-06T05:17:04.070Z,1021.94
2019-02-06T05:17:44.740Z,1021.97
2019-02-06T05:18:25.269Z,1022
2019-02-06T05:19:05.865Z,1022
2019-02-06T05:19:46.490Z,1021.99
2019-02-06T05:20:27.113Z,1022.03
2019-02-06T05:21:07.735Z,1022.04
2019-02-06T05:21:48.331Z,1022.05
2019-02-06T05:22:28.925Z,1022.06
2019-02-06T05:23:09.561Z,1022.04
2019-02-06T05:23:50.153Z,1022.03
2019-02-06T05:24:30.744Z,1022.03
2019-02-06T05:25:11.339Z,1022.05
2019-02-06T05:25:51.933Z,1022.02
2019-02-06T05:26:32.546Z,1022
2019-02-06T05:27:13.160Z,1022.03
2019-02-06T05:27:53.843Z,1022
2019-02-06T05:28:34.398Z,1021.94
2019-02-06T05:29:14.981Z,1021.99
2019-02-06T05:29:55.575Z,1021.99
2019-02-06T05:30:36.156Z,1021.99
2019-02-06T05:31:16.781Z,1022.02
2019-02-06T05:31:57.395Z,1022.01
2019-02-06T05:32:42.772Z,1022.02
2019-02-06T05:33:18.610Z,1022
2019-02-06T05:33:59.210Z,1021.98
2019-02-06T05:34:39.804Z,1022
2019-02-06T05:35:20.446Z,1021.99
2019-02-06T05:36:01.020Z,1022.01
2019-02-06T05:36:41.623Z,1021.99
2019-02-06T05:37:31.491Z,1021.97
2019-02-06T05:38:02.869Z,1021.97
2019-02-06T05:38:43.481Z,1021.92
2019-02-06T05:39:24.063Z,1021.97
2019-02-06T05:40:04.704Z,1021.95
2019-02-06T05:40:45.295Z,1022
2019-02-06T05:41:25.880Z,1021.96
2019-02-06T05:42:06.480Z,1022.02
2019-02-06T05:42:47.087Z,1021.98
2019-02-06T05:43:27.681Z,1022.01
2019-02-06T05:44:08.290Z,1022
2019-02-06T05:44:48.937Z,1022
2019-02-06T05:45:29.563Z,1022.01
2019-02-06T05:46:10.143Z,1021.97
2019-02-06T05:46:50.758Z,1021.99
2019-02-06T05:47:31.392Z,1021.96
2019-02-06T05:48:12.007Z,1021.98
2019-02-06T05:48:52.678Z,1021.99
2019-02-06T05:49:33.199Z,1021.97
2019-02-06T05:50:13.812Z,1021.96
2019-02-06T05:50:54.411Z,1021.95
2019-02-06T05:51:35.021Z,1021.92
2019-02-06T05:52:15.636Z,1021.91
2019-02-06T05:52:56.255Z,1021.92
2019-02-06T05:53:36.860Z,1021.92
2019-02-06T05:54:17.466Z,1021.94
2019-02-06T05:54:58.059Z,1021.92
2019-02-06T05:55:38.676Z,1021.93
2019-02-06T05:56:19.318Z,1021.93
2019-02-06T05:56:59.934Z,1021.96
2019-02-06T05:57:40.530Z,1021.92
2019-02-06T05:58:21.134Z,1021.92
2019-02-06T05:59:01.735Z,1021.93
2019-02-06T05:59:42.352Z,1021.93
2019-02-06T06:00:22.950Z,1021.95
2019-02-06T06:01:03.569Z,1021.96
2019-02-06T06:01:44.163Z,1021.93
2019-02-06T06:02:24.758Z,1021.97
2019-02-06T06:03:05.379Z,1021.91
2019-02-06T06:03:45.987Z,1021.9
2019-02-06T06:04:26.586Z,1021.88
2019-02-06T06:05:07.247Z,1021.9
2019-02-06T06:05:47.876Z,1021.91
2019-02-06T06:06:28.477Z,1021.87
2019-02-06T06:07:09.079Z,1021.83
2019-02-06T06:07:49.681Z,1021.88
2019-02-06T06:08:30.264Z,1021.84
2019-02-06T06:09:10.870Z,1021.81
2019-02-06T06:09:51.480Z,1021.84
2019-02-06T06:10:32.092Z,1021.81
2019-02-06T06:11:12.686Z,1021.8
2019-02-06T06:11:53.297Z,1021.78
2019-02-06T06:12:33.873Z,1021.81
2019-02-06T06:13:14.479Z,1021.77
2019-02-06T06:13:55.088Z,1021.8
2019-02-06T06:14:35.799Z,1021.79
2019-02-06T06:15:16.288Z,1021.78
2019-02-06T06:15:56.910Z,1021.8
2019-02-06T06:16:37.512Z,1021.79
2019-02-06T06:17:18.108Z,1021.8
2019-02-06T06:17:58.700Z,1021.79
2019-02-06T06:18:39.294Z,1021.84
2019-02-06T06:19:19.910Z,1021.85
2019-02-06T06:20:00.508Z,1021.83
2019-02-06T06:20:41.109Z,1021.82
2019-02-06T06:21:21.720Z,1021.9
2019-02-06T06:22:02.332Z,1021.79
2019-02-06T06:22:42.938Z,1021.81
2019-02-06T06:23:23.522Z,1021.83
2019-02-06T06:24:04.115Z,1021.82
2019-02-06T06:24:44.719Z,1021.83
2019-02-06T06:25:25.354Z,1021.8
2019-02-06T06:26:05.962Z,1021.82
2019-02-06T06:26:46.585Z,1021.8
2019-02-06T06:27:27.190Z,1021.86
2019-02-06T06:28:07.786Z,1021.82
2019-02-06T06:28:48.417Z,1021.84
2019-02-06T06:29:29.030Z,1021.87
2019-02-06T06:30:09.616Z,1021.86
2019-02-06T06:30:50.239Z,1021.86
2019-02-06T06:31:30.849Z,1021.87
2019-02-06T06:32:11.452Z,1021.87
2019-02-06T06:32:52.052Z,1021.88
2019-02-06T06:33:32.686Z,1021.86
2019-02-06T06:34:13.324Z,1021.91
2019-02-06T06:34:53.934Z,1021.91
2019-02-06T06:35:34.525Z,1021.89
2019-02-06T06:36:15.118Z,1021.89
2019-02-06T06:36:56.833Z,1021.91
2019-02-06T06:37:36.318Z,1021.9
2019-02-06T06:38:16.910Z,1021.82
2019-02-06T06:38:57.500Z,1021.84
2019-02-06T06:39:38.140Z,1021.85
2019-02-06T06:40:18.733Z,1021.84
2019-02-06T06:40:59.330Z,1021.79
2019-02-06T06:41:39.930Z,1021.84
2019-02-06T06:42:23.901Z,1021.84
2019-02-06T06:43:01.091Z,1021.83
2019-02-06T06:43:41.690Z,1021.83
2019-02-06T06:44:22.318Z,1021.85
2019-02-06T06:45:02.917Z,1021.84
2019-02-06T06:45:43.534Z,1021.86
2019-02-06T06:46:24.119Z,1021.9
2019-02-06T06:47:04.782Z,1021.89
2019-02-06T06:47:45.370Z,1021.82
2019-02-06T06:48:25.970Z,1021.87
2019-02-06T06:49:06.561Z,1021.89
2019-02-06T06:49:47.240Z,1021.91
2019-02-06T06:50:27.826Z,1021.88
2019-02-06T06:51:08.440Z,1021.87
2019-02-06T06:51:49.042Z,1021.87
2019-02-06T06:52:29.646Z,1021.85
2019-02-06T06:53:10.234Z,1021.88
2019-02-06T06:53:50.860Z,1021.89
2019-02-06T06:54:31.480Z,1021.97
2019-02-06T06:55:12.102Z,1021.96
2019-02-06T06:55:52.694Z,1021.93
2019-02-06T06:56:33.292Z,1021.95
2019-02-06T06:57:13.905Z,1021.95
2019-02-06T06:57:54.574Z,1021.95
2019-02-06T06:58:35.180Z,1021.96
2019-02-06T06:59:15.794Z,1021.97
2019-02-06T06:59:56.814Z,1021.99
2019-02-06T07:00:37.426Z,1022.02
2019-02-06T07:01:18.014Z,1022
2019-02-06T07:01:58.606Z,1022.03
2019-02-06T07:02:39.230Z,1022.03
2019-02-06T07:03:19.833Z,1022.05
2019-02-06T07:04:00.562Z,1022.02
2019-02-06T07:04:41.168Z,1022.04
2019-02-06T07:05:21.765Z,1022.05
2019-02-06T07:06:02.407Z,1022.05
2019-02-06T07:06:43.004Z,1022.06
2019-02-06T07:07:23.672Z,1022.07
2019-02-06T07:08:09.402Z,1022.08
2019-02-06T07:08:44.890Z,1022.04
2019-02-06T07:09:25.482Z,1022.06
2019-02-06T07:10:06.106Z,1022.04
2019-02-06T07:10:46.721Z,1022.08
2019-02-06T07:11:27.309Z,1022.08
2019-02-06T07:12:07.910Z,1022.08
2019-02-06T07:12:48.514Z,1022.05
2019-02-06T07:13:29.169Z,1022.07
2019-02-06T07:14:09.762Z,1022.08
2019-02-06T07:14:50.372Z,1022.08
2019-02-06T07:15:30.972Z,1022.08
2019-02-06T07:16:11.592Z,1022.1
2019-02-06T07:16:52.180Z,1022.06
2019-02-06T07:17:32.792Z,1022.07
2019-02-06T07:18:13.380Z,1022.07
2019-02-06T07:18:53.980Z,1022.07
2019-02-06T07:19:34.588Z,1022.1
2019-02-06T07:20:15.215Z,1022.08
2019-02-06T07:20:55.878Z,1022.08
2019-02-06T07:21:36.480Z,1022.09
2019-02-06T07:22:17.095Z,1022.1
2019-02-06T07:22:57.751Z,1022.1
2019-02-06T07:23:38.392Z,1022.11
2019-02-06T07:24:19.000Z,1022.13
2019-02-06T07:24:59.591Z,1022.15
2019-02-06T07:25:40.240Z,1022.17
2019-02-06T07:26:20.878Z,1022.17
2019-02-06T07:27:01.476Z,1022.17
2019-02-06T07:27:42.065Z,1022.16
2019-02-06T07:28:22.688Z,1022.17
2019-02-06T07:29:03.300Z,1022.18
2019-02-06T07:29:43.904Z,1022.16
2019-02-06T07:30:24.522Z,1022.15
2019-02-06T07:31:05.130Z,1022.17
2019-02-06T07:31:45.724Z,1022.17
2019-02-06T07:32:26.308Z,1022.17
2019-02-06T07:33:06.984Z,1022.14
2019-02-06T07:33:47.580Z,1022.18
2019-02-06T07:34:28.238Z,1022.19
2019-02-06T07:35:08.829Z,1022.17
2019-02-06T07:35:49.446Z,1022.17
2019-02-06T07:36:30.051Z,1022.19
2019-02-06T07:37:10.638Z,1022.22
2019-02-06T07:37:51.239Z,1022.22
2019-02-06T07:38:31.829Z,1022.19
2019-02-06T07:39:12.446Z,1022.18
2019-02-06T07:39:53.048Z,1022.21
2019-02-06T07:40:33.764Z,1022.21
2019-02-06T07:41:14.328Z,1022.19
2019-02-06T07:41:54.912Z,1022.24
2019-02-06T07:42:35.520Z,1022.25
2019-02-06T07:43:16.152Z,1022.26
2019-02-06T07:43:56.798Z,1022.25
2019-02-06T07:44:37.462Z,1022.24
2019-02-06T07:45:18.100Z,1022.26
2019-02-06T07:45:58.690Z,1022.25
2019-02-06T07:46:39.292Z,1022.23
2019-02-06T07:47:19.898Z,1022.25
2019-02-06T07:48:00.515Z,1022.26
2019-02-06T07:48:41.127Z,1022.28
2019-02-06T07:49:21.737Z,1022.25
2019-02-06T07:50:02.326Z,1022.26
2019-02-06T07:50:42.934Z,1022.27
2019-02-06T07:51:23.535Z,1022.31
2019-02-06T07:52:04.144Z,1022.27
2019-02-06T07:52:44.735Z,1022.27
2019-02-06T07:53:25.350Z,1022.28
2019-02-06T07:54:05.946Z,1022.31
2019-02-06T07:54:46.993Z,1022.29
2019-02-06T07:55:27.603Z,1022.29
2019-02-06T07:56:08.198Z,1022.28
2019-02-06T07:56:48.822Z,1022.3
2019-02-06T07:57:29.414Z,1022.31
2019-02-06T07:58:10.017Z,1022.31
2019-02-06T07:58:50.935Z,1022.32
2019-02-06T07:59:31.216Z,1022.33
2019-02-06T08:00:11.830Z,1022.35
2019-02-06T08:00:52.430Z,1022.31
2019-02-06T08:01:33.028Z,1022.33
2019-02-06T08:02:13.628Z,1022.32
2019-02-06T08:02:54.243Z,1022.3
2019-02-06T08:03:34.845Z,1022.32
2019-02-06T08:04:15.465Z,1022.32
2019-02-06T08:04:56.050Z,1022.31
2019-02-06T08:05:36.680Z,1022.3
2019-02-06T08:06:17.287Z,1022.29
2019-02-06T08:06:57.933Z,1022.32
2019-02-06T08:07:38.564Z,1022.28
2019-02-06T08:08:19.200Z,1022.27
2019-02-06T08:08:59.798Z,1022.3
2019-02-06T08:09:40.390Z,1022.26
2019-02-06T08:10:20.987Z,1022.27
2019-02-06T08:11:02.956Z,1022.29
2019-02-06T08:11:42.189Z,1022.25
2019-02-06T08:12:22.798Z,1022.27
2019-02-06T08:13:03.406Z,1022.25
2019-02-06T08:13:44.014Z,1022.27